KPHD/PHD METAR and TAF weather

Enter ICAO airport designator
Station Type Date Time Source
KPHD METAR 2019/04/18 21:53 UTC NOAA

KPHD 182153Z AUTO 18007G14KT 10SM SCT120 25/11 A2966 RMK AO2 SLP039 T02500111


Station Type Date Time Source
KPHD Decoded METAR 2019/04/18 21:53 UTC NOAA

NEW PHILADELPHIA CLEVER FLD, OH, United States (KPHD) 40-28N 81-25W 272M
Apr 18, 2019 - 05:53 PM EDT / 2019.04.18 2153 UTC
Wind: from the S (180 degrees) at 8 MPH (7 KT) gusting to 16 MPH (14 KT):0
Visibility: 10 mile(s):0
Sky conditions: partly cloudy
Temperature: 77.0 F (25.0 C)
Dew Point: 52.0 F (11.1 C)
Relative Humidity: 41%
Pressure (altimeter): 29.66 in. Hg (1004 hPa)
ob: KPHD 182153Z AUTO 18007G14KT 10SM SCT120 25/11 A2966 RMK AO2 SLP039 T02500111
cycle: 22

Station Type Date Time Source
KPHD TAF UTC NOAA

Error!

Example: see airport list